MSC Barbara — HODU — position and weather

sailwx.info

Track history (hours):
 
Tides and Currents Weather Stations Pressure Air Temp Water Temp Dewpoint Dewpoint Depression Visibility Wind Speed Wind Dir Waves Ship Positions

MSC Barbara

Last reported at 2016-Dec-07 13:33 UTC. Time now 2016-Dec-07 14:30 UTC.
Position N 39°15' W 076°33'.

Length 304 m; draft 12.3 m.

Type: Ship. MMSI: 353775000.

Date/timePositionNaut miles runAvg speedWind from/ knotsBaromVisibWave heightAir tempDewpointWater temp
2016-Dec-07 13:33N 39°15' W 076°33'0 0.0
2016-Dec-07 12:30N 39°15' W 076°33'0 0.0
2016-Dec-07 11:30N 39°15' W 076°33'3 3.3
2016-Dec-07 10:33N 39°12' W 076°31'1010.2
2016-Dec-07 09:34N 39°04' W 076°24'1514.8
2016-Dec-07 08:34N 38°49' W 076°25'4217.7
2016-Dec-07 06:12N 38°08' W 076°14'6714.1
2016-Dec-07 01:28N 37°02' W 076°03'8 9.2
2016-Dec-07 00:33N 36°55' W 075°56'19711.4
2016-Dec-06 07:16N 39°47' W 073°53'4111.1
2016-Dec-06 03:33N 40°28' W 073°52'1111.1
2016-Dec-06 02:33N 40°36' W 074°03'6 5.9
2016-Dec-06 01:33N 40°39' W 074°09'2 1.6
2016-Dec-06 00:29N 40°41' W 074°09'0 0.0
2016-Dec-05 23:26N 40°41' W 074°09'0 0.0
2016-Dec-05 22:28N 40°41' W 074°09'0 0.0
2016-Dec-05 21:31N 40°41' W 074°09'0 0.0
2016-Dec-05 20:31N 40°41' W 074°09'0 0.0
2016-Dec-05 19:33N 40°41' W 074°09'0 0.0
2016-Dec-05 18:30N 40°41' W 074°09'0 0.0
2016-Dec-05 17:32N 40°41' W 074°09'0 0.0
2016-Dec-05 16:32N 40°41' W 074°09'0 0.0
2016-Dec-05 15:31N 40°41' W 074°09'0 0.0
2016-Dec-05 14:31N 40°41' W 074°09'0 0.0
2016-Dec-05 13:31N 40°41' W 074°09'0 0.0
2016-Dec-05 12:33N 40°41' W 074°09'0 0.0
2016-Dec-05 11:30N 40°41' W 074°09'0 0.0
2016-Dec-05 10:32N 40°41' W 074°09'0 0.0
2016-Dec-05 09:32N 40°41' W 074°09'0 0.0
2016-Dec-05 08:31N 40°41' W 074°09'0 0.0
2016-Dec-05 07:31N 40°41' W 074°09'0 0.0
2016-Dec-05 06:34N 40°41' W 074°09'0 0.0
2016-Dec-05 05:33N 40°41' W 074°09'0 0.0
2016-Dec-05 04:33N 40°41' W 074°09'0 0.0
2016-Dec-05 03:32N 40°41' W 074°09'0 0.0
2016-Dec-05 02:32N 40°41' W 074°09'0 0.0
2016-Dec-05 01:31N 40°41' W 074°09'0 0.0
2016-Dec-05 00:28N 40°41' W 074°09'0 0.0
2016-Dec-04 23:34N 40°41' W 074°09'0 0.0
2016-Dec-04 22:33N 40°41' W 074°09'0 0.0
2016-Dec-04 21:33N 40°41' W 074°09'0 0.0
2016-Dec-04 20:29N 40°41' W 074°09'0 0.0
2016-Dec-04 19:32N 40°41' W 074°09'0 0.0
2016-Dec-04 18:28N 40°41' W 074°09'0 0.0
2016-Dec-04 17:31N 40°41' W 074°09'0 0.0
2016-Dec-04 16:33N 40°41' W 074°09'0 0.0
2016-Dec-04 15:33N 40°41' W 074°09'0 0.0
2016-Dec-04 14:33N 40°41' W 074°09'3 2.7
2016-Dec-04 13:33N 40°39' W 074°07'7 6.6
2016-Dec-04 12:33N 40°34' W 074°02'9 9.2
2016-Dec-04 11:33N 40°28' W 073°52'6 5.4
2016-Dec-04 10:32N 40°25' W 073°46'5 5.2
2016-Dec-04 09:33N 40°19' W 073°46'3610.3
2016-Dec-04 06:07N 39°44' W 073°41'811.6
2016-Dec-04 05:25N 39°37' W 073°45'19212.0
2016-Dec-03 13:19N 36°51' W 075°49'7 9.2
2016-Dec-03 12:33N 36°55' W 075°56'19 9.7
2016-Dec-03 10:33N 36°54' W 076°20'2 1.8
2016-Dec-03 09:33N 36°52' W 076°21'0 0.0
2016-Dec-03 08:33N 36°52' W 076°21'0 0.0
2016-Dec-03 07:32N 36°52' W 076°21'0 0.0
2016-Dec-03 06:32N 36°52' W 076°21'0 0.0
2016-Dec-03 05:32N 36°52' W 076°21'0 0.0
2016-Dec-03 04:31N 36°52' W 076°21'0 0.0
2016-Dec-03 03:31N 36°52' W 076°21'0 0.0
2016-Dec-03 02:33N 36°52' W 076°21'0 0.0
2016-Dec-03 01:33N 36°52' W 076°21'0 0.0
2016-Dec-03 00:32N 36°52' W 076°21'0 0.0
2016-Dec-02 23:32N 36°52' W 076°21'0 0.0
2016-Dec-02 22:31N 36°52' W 076°21'0 0.0
2016-Dec-02 21:31N 36°52' W 076°21'0 0.0
2016-Dec-02 20:31N 36°52' W 076°21'0 0.0
2016-Dec-02 19:33N 36°52' W 076°21'0 0.0
2016-Dec-02 18:33N 36°52' W 076°21'0 0.0
2016-Dec-02 17:32N 36°52' W 076°21'0 0.0
2016-Dec-02 16:32N 36°52' W 076°21'2 2.3
2016-Dec-02 15:34N 36°55' W 076°20'9 9.1
2016-Dec-02 14:33N 36°60' W 076°11'1212.4
2016-Dec-02 13:34N 36°56' W 075°56'9 8.7
2016-Dec-02 12:33N 36°50' W 075°48'  
Track history (hours):
 
Tides and Currents Weather Stations Pressure Air Temp Water Temp Dewpoint Dewpoint Depression Visibility Wind Speed Wind Dir Waves Ship Positions

MSC Barbara

Last reported at 2016-Dec-07 13:33 UTC. Time now 2016-Dec-07 14:30 UTC.
Position N 39°15' W 076°33'.

Length 304 m; draft 12.3 m.

Type: Ship. MMSI: 353775000.

Date/timePositionNaut miles runAvg speedWind from/ knotsBaromVisibWave heightAir tempDewpointWater temp
2016-Dec-07 13:33N 39°15' W 076°33'0 0.0
2016-Dec-07 12:30N 39°15' W 076°33'0 0.0
2016-Dec-07 11:30N 39°15' W 076°33'3 3.3
2016-Dec-07 10:33N 39°12' W 076°31'1010.2
2016-Dec-07 09:34N 39°04' W 076°24'1514.8
2016-Dec-07 08:34N 38°49' W 076°25'4217.7
2016-Dec-07 06:12N 38°08' W 076°14'6714.1
2016-Dec-07 01:28N 37°02' W 076°03'8 9.2
2016-Dec-07 00:33N 36°55' W 075°56'19711.4
2016-Dec-06 07:16N 39°47' W 073°53'4111.1
2016-Dec-06 03:33N 40°28' W 073°52'1111.1
2016-Dec-06 02:33N 40°36' W 074°03'6 5.9
2016-Dec-06 01:33N 40°39' W 074°09'2 1.6
2016-Dec-06 00:29N 40°41' W 074°09'0 0.0
2016-Dec-05 23:26N 40°41' W 074°09'0 0.0
2016-Dec-05 22:28N 40°41' W 074°09'0 0.0
2016-Dec-05 21:31N 40°41' W 074°09'0 0.0
2016-Dec-05 20:31N 40°41' W 074°09'0 0.0
2016-Dec-05 19:33N 40°41' W 074°09'0 0.0
2016-Dec-05 18:30N 40°41' W 074°09'0 0.0
2016-Dec-05 17:32N 40°41' W 074°09'0 0.0
2016-Dec-05 16:32N 40°41' W 074°09'0 0.0
2016-Dec-05 15:31N 40°41' W 074°09'0 0.0
2016-Dec-05 14:31N 40°41' W 074°09'0 0.0
2016-Dec-05 13:31N 40°41' W 074°09'0 0.0
2016-Dec-05 12:33N 40°41' W 074°09'0 0.0
2016-Dec-05 11:30N 40°41' W 074°09'0 0.0
2016-Dec-05 10:32N 40°41' W 074°09'0 0.0
2016-Dec-05 09:32N 40°41' W 074°09'0 0.0
2016-Dec-05 08:31N 40°41' W 074°09'0 0.0
2016-Dec-05 07:31N 40°41' W 074°09'0 0.0
2016-Dec-05 06:34N 40°41' W 074°09'0 0.0
2016-Dec-05 05:33N 40°41' W 074°09'0 0.0
2016-Dec-05 04:33N 40°41' W 074°09'0 0.0
2016-Dec-05 03:32N 40°41' W 074°09'0 0.0
2016-Dec-05 02:32N 40°41' W 074°09'0 0.0
2016-Dec-05 01:31N 40°41' W 074°09'0 0.0
2016-Dec-05 00:28N 40°41' W 074°09'0 0.0
2016-Dec-04 23:34N 40°41' W 074°09'0 0.0
2016-Dec-04 22:33N 40°41' W 074°09'0 0.0
2016-Dec-04 21:33N 40°41' W 074°09'0 0.0
2016-Dec-04 20:29N 40°41' W 074°09'0 0.0
2016-Dec-04 19:32N 40°41' W 074°09'0 0.0
2016-Dec-04 18:28N 40°41' W 074°09'0 0.0
2016-Dec-04 17:31N 40°41' W 074°09'0 0.0
2016-Dec-04 16:33N 40°41' W 074°09'0 0.0
2016-Dec-04 15:33N 40°41' W 074°09'0 0.0
2016-Dec-04 14:33N 40°41' W 074°09'3 2.7
2016-Dec-04 13:33N 40°39' W 074°07'7 6.6
2016-Dec-04 12:33N 40°34' W 074°02'9 9.2
2016-Dec-04 11:33N 40°28' W 073°52'6 5.4
2016-Dec-04 10:32N 40°25' W 073°46'5 5.2
2016-Dec-04 09:33N 40°19' W 073°46'3610.3
2016-Dec-04 06:07N 39°44' W 073°41'811.6
2016-Dec-04 05:25N 39°37' W 073°45'19212.0
2016-Dec-03 13:19N 36°51' W 075°49'7 9.2
2016-Dec-03 12:33N 36°55' W 075°56'19 9.7
2016-Dec-03 10:33N 36°54' W 076°20'2 1.8
2016-Dec-03 09:33N 36°52' W 076°21'0 0.0
2016-Dec-03 08:33N 36°52' W 076°21'0 0.0
2016-Dec-03 07:32N 36°52' W 076°21'0 0.0
2016-Dec-03 06:32N 36°52' W 076°21'0 0.0
2016-Dec-03 05:32N 36°52' W 076°21'0 0.0
2016-Dec-03 04:31N 36°52' W 076°21'0 0.0
2016-Dec-03 03:31N 36°52' W 076°21'0 0.0
2016-Dec-03 02:33N 36°52' W 076°21'0 0.0
2016-Dec-03 01:33N 36°52' W 076°21'0 0.0
2016-Dec-03 00:32N 36°52' W 076°21'0 0.0
2016-Dec-02 23:32N 36°52' W 076°21'0 0.0
2016-Dec-02 22:31N 36°52' W 076°21'0 0.0
2016-Dec-02 21:31N 36°52' W 076°21'0 0.0
2016-Dec-02 20:31N 36°52' W 076°21'0 0.0
2016-Dec-02 19:33N 36°52' W 076°21'0 0.0
2016-Dec-02 18:33N 36°52' W 076°21'0 0.0
2016-Dec-02 17:32N 36°52' W 076°21'0 0.0
2016-Dec-02 16:32N 36°52' W 076°21'2 2.3
2016-Dec-02 15:34N 36°55' W 076°20'9 9.1
2016-Dec-02 14:33N 36°60' W 076°11'1212.4
2016-Dec-02 13:34N 36°56' W 075°56'9 8.7
2016-Dec-02 12:33N 36°50' W 075°48'  

Dump ship's entire track history